createdAt,value
2022-07-29T00:02:14.143Z,21.50
2022-07-29T00:04:40.720Z,21.50
2022-07-29T00:07:07.307Z,21.50
2022-07-29T00:09:34.068Z,21.40
2022-07-29T00:12:18.066Z,21.40
2022-07-29T00:14:52.813Z,21.40
2022-07-29T00:17:19.321Z,21.40
2022-07-29T00:19:45.892Z,21.40
2022-07-29T00:22:12.323Z,21.30
2022-07-29T00:24:38.791Z,21.30
2022-07-29T00:27:05.265Z,21.30
2022-07-29T00:29:34.033Z,21.30
2022-07-29T00:32:01.480Z,21.20
2022-07-29T00:34:46.704Z,21.20
2022-07-29T00:37:13.162Z,21.20
2022-07-29T00:39:39.627Z,21.20
2022-07-29T00:42:06.334Z,21.10
2022-07-29T00:44:36.845Z,21.10
2022-07-29T00:47:03.450Z,21.10
2022-07-29T00:49:30.007Z,21.10
2022-07-29T00:51:56.426Z,21.00
2022-07-29T00:54:22.894Z,21.00
2022-07-29T00:56:50.146Z,21.00
2022-07-29T00:59:16.592Z,21.00
2022-07-29T01:01:43.094Z,21.00
2022-07-29T01:04:09.604Z,20.90
2022-07-29T01:06:36.424Z,20.90
2022-07-29T01:09:03.528Z,20.90
2022-07-29T01:11:30.107Z,20.90
2022-07-29T01:13:56.862Z,20.90
2022-07-29T01:16:28.101Z,20.80
2022-07-29T01:18:59.480Z,20.80
2022-07-29T01:21:26.828Z,20.80
2022-07-29T01:24:12.045Z,20.80
2022-07-29T01:26:57.631Z,20.70
2022-07-29T01:29:38.822Z,20.70
2022-07-29T01:32:27.802Z,20.70
2022-07-29T01:35:06.479Z,20.70
2022-07-29T01:37:32.910Z,20.60
2022-07-29T01:40:01.009Z,20.60
2022-07-29T01:42:36.506Z,20.60
2022-07-29T01:45:07.228Z,20.60
2022-07-29T01:47:41.318Z,20.50
2022-07-29T01:50:09.490Z,20.50
2022-07-29T01:52:38.860Z,20.50
2022-07-29T01:55:15.728Z,20.50
2022-07-29T01:57:44.170Z,20.40
2022-07-29T02:00:11.452Z,20.40
2022-07-29T02:02:38.821Z,20.40
2022-07-29T02:05:06.988Z,20.40
2022-07-29T02:07:33.971Z,20.30
2022-07-29T02:10:01.774Z,20.30
2022-07-29T02:12:29.426Z,20.30
2022-07-29T02:14:57.277Z,20.30
2022-07-29T02:17:27.232Z,20.30
2022-07-29T02:19:57.483Z,20.20
2022-07-29T02:22:25.260Z,20.20
2022-07-29T02:24:52.522Z,20.20
2022-07-29T02:27:19.850Z,20.20
2022-07-29T02:29:47.431Z,20.10
2022-07-29T02:32:15.060Z,20.10
2022-07-29T02:34:42.531Z,20.10
2022-07-29T02:37:10.806Z,20.10
2022-07-29T02:39:38.403Z,20.00
2022-07-29T02:42:06.709Z,20.00
2022-07-29T02:44:35.377Z,20.00
2022-07-29T02:47:08.284Z,20.00
2022-07-29T02:49:43.548Z,20.00
2022-07-29T02:52:13.741Z,19.90
2022-07-29T02:54:42.174Z,19.90
2022-07-29T02:57:55.190Z,19.90
2022-07-29T03:00:23.487Z,19.90
2022-07-29T03:02:53.363Z,19.80
2022-07-29T03:05:21.593Z,19.80
2022-07-29T03:07:56.602Z,19.80
2022-07-29T03:10:24.457Z,19.80
2022-07-29T03:12:50.983Z,19.70
2022-07-29T03:15:17.592Z,19.70
2022-07-29T03:17:46.564Z,19.70
2022-07-29T03:20:13.660Z,19.70
2022-07-29T03:22:44.566Z,19.70
2022-07-29T03:25:12.142Z,19.60
2022-07-29T03:27:38.610Z,19.60
2022-07-29T03:30:05.706Z,19.60
2022-07-29T03:32:35.560Z,19.50
2022-07-29T03:35:02.376Z,19.50
2022-07-29T03:37:28.939Z,19.50
2022-07-29T03:39:56.751Z,19.50
2022-07-29T03:42:25.667Z,19.50
2022-07-29T03:44:52.633Z,19.40
2022-07-29T03:47:21.524Z,19.40
2022-07-29T03:49:50.876Z,19.40
2022-07-29T03:52:17.612Z,19.40
2022-07-29T03:54:44.173Z,19.40
2022-07-29T03:57:11.448Z,19.30
2022-07-29T03:59:38.968Z,19.30
2022-07-29T04:02:06.447Z,19.30
2022-07-29T04:04:37.095Z,19.30
2022-07-29T04:07:04.043Z,19.30
2022-07-29T04:09:30.649Z,19.20
2022-07-29T04:12:03.276Z,19.20
2022-07-29T04:14:31.681Z,19.20
2022-07-29T04:16:58.174Z,19.20
2022-07-29T04:19:24.615Z,19.10
2022-07-29T04:21:52.294Z,19.10
2022-07-29T04:24:19.280Z,19.10
2022-07-29T04:26:49.324Z,19.10
2022-07-29T04:29:15.796Z,19.10
2022-07-29T04:31:42.636Z,19.00
2022-07-29T04:34:10.006Z,19.00
2022-07-29T04:36:36.500Z,19.00
2022-07-29T04:39:03.134Z,19.00
2022-07-29T04:41:33.415Z,19.00
2022-07-29T04:44:02.063Z,18.90
2022-07-29T04:46:28.724Z,18.90
2022-07-29T04:48:55.360Z,18.90
2022-07-29T04:51:21.905Z,18.90
2022-07-29T04:53:48.860Z,18.90
2022-07-29T04:56:15.355Z,18.90
2022-07-29T04:58:41.790Z,18.80
2022-07-29T05:01:08.279Z,18.80
2022-07-29T05:03:34.815Z,18.80
2022-07-29T05:06:01.279Z,18.80
2022-07-29T05:08:27.858Z,18.80
2022-07-29T05:10:54.299Z,18.80
2022-07-29T05:13:20.768Z,18.70
2022-07-29T05:15:47.346Z,18.70
2022-07-29T05:18:13.882Z,18.70
2022-07-29T05:20:40.559Z,18.70
2022-07-29T05:23:07.049Z,18.70
2022-07-29T05:25:42.014Z,18.70
2022-07-29T05:28:11.026Z,18.70
2022-07-29T05:30:37.540Z,18.70
2022-07-29T05:33:04.105Z,18.70
2022-07-29T05:35:30.595Z,18.70
2022-07-29T05:37:57.066Z,18.70
2022-07-29T05:40:23.592Z,18.70
2022-07-29T05:42:50.066Z,18.70
2022-07-29T05:45:16.491Z,18.70
2022-07-29T05:47:42.948Z,18.70
2022-07-29T05:50:09.750Z,18.70
2022-07-29T05:52:36.203Z,18.70
2022-07-29T05:55:05.298Z,18.80
2022-07-29T05:57:32.113Z,18.80
2022-07-29T05:59:58.629Z,18.80
2022-07-29T06:02:25.250Z,18.90
2022-07-29T06:04:51.811Z,18.90
2022-07-29T06:07:18.359Z,18.90
2022-07-29T06:09:44.838Z,19.00
2022-07-29T06:12:11.268Z,19.00
2022-07-29T06:14:39.179Z,19.00
2022-07-29T06:17:06.594Z,19.10
2022-07-29T06:19:35.385Z,19.20
2022-07-29T06:22:01.815Z,19.20
2022-07-29T06:24:28.383Z,19.20
2022-07-29T06:26:54.854Z,19.30
2022-07-29T06:29:21.353Z,19.30
2022-07-29T06:31:47.825Z,19.50
2022-07-29T06:34:14.582Z,19.50
2022-07-29T06:36:41.898Z,19.60
2022-07-29T06:39:08.860Z,19.60
2022-07-29T06:41:35.582Z,19.60
2022-07-29T06:44:02.335Z,19.60
2022-07-29T06:46:28.850Z,19.80
2022-07-29T06:48:55.564Z,19.80
2022-07-29T06:51:23.096Z,19.90
2022-07-29T06:54:00.094Z,19.90
2022-07-29T06:56:39.098Z,20.00
2022-07-29T06:59:07.339Z,20.10
2022-07-29T07:01:33.862Z,20.20
2022-07-29T07:04:00.398Z,20.20
2022-07-29T07:06:26.938Z,20.30
2022-07-29T07:08:53.363Z,20.50
2022-07-29T07:11:20.274Z,20.60
2022-07-29T07:13:46.760Z,20.60
2022-07-29T07:16:13.318Z,20.70
2022-07-29T07:18:39.813Z,20.80
2022-07-29T07:21:06.732Z,20.90
2022-07-29T07:23:33.182Z,20.90
2022-07-29T07:25:59.645Z,20.90
2022-07-29T07:28:26.120Z,21.00
2022-07-29T07:30:52.976Z,21.10
2022-07-29T07:33:19.879Z,21.30
2022-07-29T07:35:46.462Z,21.30
2022-07-29T07:38:13.150Z,21.40
2022-07-29T07:40:39.622Z,21.50
2022-07-29T07:43:06.120Z,21.50
2022-07-29T07:45:33.995Z,21.70
2022-07-29T07:48:00.579Z,21.80
2022-07-29T07:50:27.494Z,21.90
2022-07-29T07:52:56.084Z,22.10
2022-07-29T07:55:22.587Z,22.00
2022-07-29T07:57:49.063Z,22.10
2022-07-29T08:00:16.120Z,22.20
2022-07-29T08:02:43.909Z,22.40
2022-07-29T08:05:12.693Z,22.40
2022-07-29T08:07:39.746Z,22.40
2022-07-29T08:10:06.363Z,22.60
2022-07-29T08:12:32.830Z,22.70
2022-07-29T08:14:59.353Z,22.70
2022-07-29T08:17:26.385Z,22.80
2022-07-29T08:19:53.022Z,23.10
2022-07-29T08:22:19.654Z,23.10
2022-07-29T08:24:54.954Z,23.10
2022-07-29T08:27:42.333Z,23.10
2022-07-29T08:30:09.333Z,23.10
2022-07-29T08:35:23.329Z,23.40
2022-07-29T08:37:49.840Z,23.50
2022-07-29T08:40:16.493Z,23.60
2022-07-29T08:42:42.977Z,23.90
2022-07-29T08:45:09.759Z,24.00
2022-07-29T08:47:40.700Z,24.00
2022-07-29T08:50:10.952Z,24.00
2022-07-29T08:52:41.364Z,24.00
2022-07-29T08:55:08.649Z,24.20
2022-07-29T08:57:35.985Z,24.20
2022-07-29T09:00:10.744Z,24.50
2022-07-29T09:02:44.468Z,24.40
2022-07-29T09:05:13.634Z,24.60
2022-07-29T09:07:40.189Z,24.60
2022-07-29T09:10:07.137Z,24.60
2022-07-29T09:12:38.035Z,24.80
2022-07-29T09:15:05.072Z,24.90
2022-07-29T09:18:01.361Z,25.00
2022-07-29T09:20:48.161Z,25.10
2022-07-29T09:23:23.479Z,25.20
2022-07-29T09:25:51.575Z,25.30
2022-07-29T09:28:18.685Z,25.40
2022-07-29T09:30:52.124Z,25.30
2022-07-29T09:33:18.817Z,25.50
2022-07-29T09:35:56.530Z,25.60
2022-07-29T09:38:23.725Z,25.70
2022-07-29T09:41:05.696Z,25.80
2022-07-29T09:43:33.595Z,25.80
2022-07-29T09:46:13.051Z,25.80
2022-07-29T09:48:40.149Z,26.00
2022-07-29T09:51:07.522Z,26.10
2022-07-29T09:53:35.450Z,26.30
2022-07-29T09:56:02.184Z,26.20
2022-07-29T09:58:28.824Z,26.40
2022-07-29T10:00:55.982Z,26.40
2022-07-29T10:03:23.020Z,26.50
2022-07-29T10:06:05.809Z,26.60
2022-07-29T10:08:32.466Z,26.60
2022-07-29T10:11:24.967Z,26.80
2022-07-29T10:14:11.415Z,26.80
2022-07-29T10:16:37.961Z,26.80
2022-07-29T10:19:04.584Z,26.90
2022-07-29T10:21:36.123Z,26.90
2022-07-29T10:24:03.355Z,27.10
2022-07-29T10:26:31.401Z,27.30
2022-07-29T10:28:57.915Z,27.40
2022-07-29T10:31:29.760Z,27.30
2022-07-29T10:34:08.969Z,27.40
2022-07-29T10:36:53.975Z,27.30
2022-07-29T10:39:41.555Z,27.50
2022-07-29T10:42:13.995Z,27.60
2022-07-29T10:44:43.854Z,27.70
2022-07-29T10:47:20.875Z,27.80
2022-07-29T10:50:04.601Z,28.00
2022-07-29T10:52:49.699Z,28.00
2022-07-29T10:55:31.510Z,28.00
2022-07-29T10:58:13.723Z,28.10
2022-07-29T11:00:40.646Z,28.20
2022-07-29T11:03:10.462Z,28.30
2022-07-29T11:05:54.294Z,28.30
2022-07-29T11:08:26.133Z,28.40
2022-07-29T11:10:54.403Z,28.50
2022-07-29T11:13:53.330Z,28.60
2022-07-29T11:16:25.260Z,28.60
2022-07-29T11:19:10.763Z,28.60
2022-07-29T11:21:54.114Z,28.60
2022-07-29T11:24:28.696Z,28.80
2022-07-29T11:27:13.336Z,28.80
2022-07-29T11:29:43.094Z,28.80
2022-07-29T11:32:15.745Z,29.00
2022-07-29T11:34:45.058Z,29.10
2022-07-29T11:37:12.305Z,29.00
2022-07-29T11:39:47.463Z,29.10
2022-07-29T11:42:28.451Z,29.20
2022-07-29T11:45:09.029Z,29.30
2022-07-29T11:47:49.687Z,29.20
2022-07-29T11:50:17.439Z,29.20
2022-07-29T11:52:49.649Z,29.20
2022-07-29T11:55:17.741Z,29.30
2022-07-29T12:00:38.753Z,29.50
2022-07-29T12:03:06.917Z,29.50
2022-07-29T12:05:37.718Z,29.60
2022-07-29T12:08:12.615Z,29.50
2022-07-29T12:10:42.000Z,29.60
2022-07-29T12:13:08.833Z,29.70
2022-07-29T12:15:47.045Z,29.60
2022-07-29T12:18:24.198Z,29.70
2022-07-29T12:20:58.256Z,29.80
2022-07-29T12:23:24.724Z,29.80
2022-07-29T12:25:56.182Z,29.90
2022-07-29T12:28:26.667Z,29.90
2022-07-29T12:30:54.226Z,30.00
2022-07-29T12:33:28.554Z,30.10
2022-07-29T12:36:06.215Z,30.10
2022-07-29T12:38:35.709Z,30.10
2022-07-29T12:41:02.529Z,30.10
2022-07-29T12:43:31.335Z,30.20
2022-07-29T12:45:58.361Z,30.20
2022-07-29T12:48:37.739Z,30.20
2022-07-29T12:51:04.952Z,30.30
2022-07-29T12:53:31.681Z,30.30
2022-07-29T12:56:00.696Z,30.40
2022-07-29T12:58:28.214Z,30.40
2022-07-29T13:01:07.129Z,30.40
2022-07-29T13:03:57.045Z,30.50
2022-07-29T13:06:31.566Z,30.50
2022-07-29T13:09:03.975Z,30.50
2022-07-29T13:11:31.137Z,30.50
2022-07-29T13:14:05.694Z,30.60
2022-07-29T13:16:33.303Z,30.60
2022-07-29T13:19:07.241Z,30.70
2022-07-29T13:21:33.968Z,30.70
2022-07-29T13:24:00.621Z,30.70
2022-07-29T13:26:27.088Z,30.70
2022-07-29T13:28:53.531Z,30.80
2022-07-29T13:31:20.098Z,30.80
2022-07-29T13:33:46.567Z,30.80
2022-07-29T13:36:13.040Z,30.90
2022-07-29T13:38:39.688Z,30.90
2022-07-29T13:41:06.548Z,30.90
2022-07-29T13:43:33.375Z,30.90
2022-07-29T13:45:59.900Z,31.00
2022-07-29T13:48:26.403Z,31.00
2022-07-29T13:50:52.885Z,31.00
2022-07-29T13:53:19.745Z,31.10
2022-07-29T13:55:54.170Z,31.10
2022-07-29T13:58:20.677Z,31.10
2022-07-29T14:00:47.668Z,31.20
2022-07-29T14:03:14.096Z,31.20
2022-07-29T14:05:40.540Z,31.20
2022-07-29T14:08:07.038Z,31.20
2022-07-29T14:10:33.542Z,31.30
2022-07-29T14:12:59.964Z,31.30
2022-07-29T14:15:26.649Z,31.30
2022-07-29T14:17:53.080Z,31.30
2022-07-29T14:20:19.825Z,31.40
2022-07-29T14:22:46.283Z,31.40
2022-07-29T14:25:14.970Z,31.40
2022-07-29T14:27:42.946Z,31.40
2022-07-29T14:30:09.788Z,31.50
2022-07-29T14:32:36.281Z,31.50
2022-07-29T14:35:05.498Z,31.50
2022-07-29T14:37:39.894Z,31.50
2022-07-29T14:40:07.545Z,31.50
2022-07-29T14:42:34.029Z,31.60
2022-07-29T14:45:00.577Z,31.60
2022-07-29T14:47:27.048Z,31.60
2022-07-29T14:49:53.689Z,31.60
2022-07-29T14:52:20.188Z,31.60
2022-07-29T14:54:46.713Z,31.60
2022-07-29T14:57:13.212Z,31.60
2022-07-29T14:59:39.672Z,31.60
2022-07-29T15:02:06.217Z,31.60
2022-07-29T15:04:32.658Z,31.60
2022-07-29T15:06:59.149Z,31.60
2022-07-29T15:09:25.624Z,31.60
2022-07-29T15:11:52.091Z,31.60
2022-07-29T15:14:18.692Z,31.70
2022-07-29T15:16:46.688Z,31.70
2022-07-29T15:19:14.889Z,31.70
2022-07-29T15:21:48.195Z,31.70
2022-07-29T15:24:16.404Z,31.70
2022-07-29T15:26:43.951Z,31.70
2022-07-29T15:29:10.561Z,31.70
2022-07-29T15:31:37.176Z,31.70
2022-07-29T15:34:06.352Z,31.70
2022-07-29T15:36:51.609Z,31.70
2022-07-29T15:39:19.776Z,31.70
2022-07-29T15:41:46.300Z,31.70
2022-07-29T15:44:12.711Z,31.70
2022-07-29T15:46:57.890Z,31.70
2022-07-29T15:49:31.342Z,31.70
2022-07-29T15:52:15.995Z,31.60
2022-07-29T15:54:42.464Z,31.60
2022-07-29T15:57:09.858Z,31.60
2022-07-29T15:59:36.380Z,31.60
2022-07-29T16:02:03.562Z,31.50
2022-07-29T16:04:30.027Z,30.80
2022-07-29T16:06:57.381Z,30.70
2022-07-29T16:09:24.061Z,31.10
2022-07-29T16:11:53.518Z,31.30
2022-07-29T16:14:20.324Z,31.20
2022-07-29T16:16:46.829Z,31.10
2022-07-29T16:19:13.363Z,31.00
2022-07-29T16:21:40.174Z,30.90
2022-07-29T16:24:06.984Z,30.90
2022-07-29T16:26:33.934Z,30.80
2022-07-29T16:29:00.410Z,31.00
2022-07-29T16:31:27.561Z,31.00
2022-07-29T16:33:55.958Z,31.00
2022-07-29T16:36:22.662Z,31.00
2022-07-29T16:38:49.202Z,31.00
2022-07-29T16:41:15.680Z,30.70
2022-07-29T16:43:44.894Z,30.80
2022-07-29T16:46:14.027Z,30.90
2022-07-29T16:48:46.019Z,30.90
2022-07-29T16:51:14.398Z,30.90
2022-07-29T16:53:41.290Z,30.90
2022-07-29T16:56:08.566Z,30.90
2022-07-29T16:58:43.490Z,30.90
2022-07-29T17:01:10.756Z,30.90
2022-07-29T17:04:00.123Z,30.80
2022-07-29T17:06:27.645Z,30.80
2022-07-29T17:08:54.116Z,30.80
2022-07-29T17:11:20.597Z,30.80
2022-07-29T17:13:47.118Z,30.70
2022-07-29T17:16:13.633Z,30.70
2022-07-29T17:18:40.069Z,30.70
2022-07-29T17:21:06.530Z,30.60
2022-07-29T17:23:32.976Z,30.60
2022-07-29T17:25:59.522Z,30.60
2022-07-29T17:28:25.987Z,30.60
2022-07-29T17:30:53.255Z,30.50
2022-07-29T17:33:19.723Z,30.50
2022-07-29T17:36:04.802Z,30.40
2022-07-29T17:38:31.246Z,30.40
2022-07-29T17:40:57.710Z,30.40
2022-07-29T17:43:24.178Z,30.30
2022-07-29T17:45:51.328Z,30.30
2022-07-29T17:48:18.197Z,30.20
2022-07-29T17:50:44.739Z,30.20
2022-07-29T17:53:16.284Z,30.20
2022-07-29T17:55:45.348Z,30.10
2022-07-29T17:58:12.112Z,30.10
2022-07-29T18:00:38.809Z,30.00
2022-07-29T18:03:05.351Z,30.00
2022-07-29T18:05:31.873Z,29.90
2022-07-29T18:07:58.895Z,29.90
2022-07-29T18:10:25.593Z,29.80
2022-07-29T18:12:52.435Z,29.80
2022-07-29T18:15:18.970Z,29.70
2022-07-29T18:17:51.902Z,29.60
2022-07-29T18:20:22.889Z,29.60
2022-07-29T18:22:49.358Z,29.50
2022-07-29T18:25:15.810Z,29.40
2022-07-29T18:27:42.319Z,29.40
2022-07-29T18:30:09.274Z,29.20
2022-07-29T18:32:35.816Z,28.90
2022-07-29T18:35:05.052Z,28.60
2022-07-29T18:38:00.802Z,28.50
2022-07-29T18:40:20.876Z,28.40
2022-07-29T18:42:47.613Z,28.30
2022-07-29T18:45:18.992Z,28.20
2022-07-29T18:47:47.474Z,28.20
2022-07-29T18:50:14.724Z,28.30
2022-07-29T18:52:41.307Z,28.30
2022-07-29T18:55:08.250Z,28.30
2022-07-29T18:57:55.156Z,28.20
2022-07-29T19:00:21.332Z,28.20
2022-07-29T19:02:49.285Z,28.20
2022-07-29T19:05:15.860Z,28.10
2022-07-29T19:07:42.362Z,28.00
2022-07-29T19:10:09.066Z,28.00
2022-07-29T19:12:35.651Z,27.90
2022-07-29T19:15:03.115Z,27.90
2022-07-29T19:17:29.610Z,27.80
2022-07-29T19:19:56.095Z,27.80
2022-07-29T19:22:22.881Z,27.70
2022-07-29T19:24:49.749Z,27.70
2022-07-29T19:27:17.269Z,27.60
2022-07-29T19:29:44.129Z,27.60
2022-07-29T19:32:10.611Z,27.50
2022-07-29T19:34:37.459Z,27.50
2022-07-29T19:37:04.188Z,27.40
2022-07-29T19:39:34.771Z,27.40
2022-07-29T19:42:03.413Z,27.30
2022-07-29T19:44:30.209Z,27.30
2022-07-29T19:46:57.031Z,27.20
2022-07-29T19:49:23.938Z,27.10
2022-07-29T19:51:50.517Z,27.10
2022-07-29T19:54:19.826Z,27.00
2022-07-29T19:56:46.314Z,27.00
2022-07-29T19:59:12.814Z,27.00
2022-07-29T20:01:39.471Z,26.90
2022-07-29T20:04:06.157Z,26.80
2022-07-29T20:06:32.669Z,26.70
2022-07-29T20:08:59.257Z,26.70
2022-07-29T20:11:26.594Z,26.60
2022-07-29T20:13:53.126Z,26.60
2022-07-29T20:16:19.736Z,26.50
2022-07-29T20:18:46.241Z,26.50
2022-07-29T20:21:13.366Z,26.40
2022-07-29T20:23:39.838Z,26.40
2022-07-29T20:26:09.453Z,26.40
2022-07-29T20:28:37.149Z,26.30
2022-07-29T20:31:03.722Z,26.20
2022-07-29T20:33:30.240Z,26.20
2022-07-29T20:35:56.740Z,26.10
2022-07-29T20:38:23.186Z,26.10
2022-07-29T20:40:50.782Z,26.00
2022-07-29T20:43:17.335Z,26.00
2022-07-29T20:45:43.774Z,26.00
2022-07-29T20:48:10.646Z,25.90
2022-07-29T20:50:37.158Z,25.80
2022-07-29T20:53:03.766Z,25.80
2022-07-29T20:55:31.945Z,25.80
2022-07-29T20:57:58.781Z,25.70
2022-07-29T21:00:25.235Z,25.70
2022-07-29T21:02:51.837Z,25.60
2022-07-29T21:05:18.420Z,25.60
2022-07-29T21:07:44.933Z,25.50
2022-07-29T21:10:11.392Z,25.40
2022-07-29T21:12:37.978Z,25.40
2022-07-29T21:15:06.638Z,25.40
2022-07-29T21:17:35.861Z,25.30
2022-07-29T21:20:04.227Z,25.30
2022-07-29T21:22:30.705Z,25.20
2022-07-29T21:24:57.264Z,25.20
2022-07-29T21:27:42.580Z,25.10
2022-07-29T21:30:09.775Z,25.10
2022-07-29T21:32:36.387Z,25.10
2022-07-29T21:35:03.456Z,25.00
2022-07-29T21:37:41.806Z,25.00
2022-07-29T21:40:08.651Z,24.90
2022-07-29T21:42:35.151Z,24.90
2022-07-29T21:45:01.709Z,24.80
2022-07-29T21:47:28.163Z,24.80
2022-07-29T21:49:54.613Z,24.80
2022-07-29T21:52:21.121Z,24.70
2022-07-29T21:54:47.549Z,24.70
2022-07-29T21:57:16.553Z,24.60
2022-07-29T21:59:43.066Z,24.60
2022-07-29T22:02:09.504Z,24.50
2022-07-29T22:04:36.087Z,24.50
2022-07-29T22:07:03.238Z,24.50
2022-07-29T22:09:30.276Z,24.40
2022-07-29T22:11:56.750Z,24.40
2022-07-29T22:14:23.278Z,24.30
2022-07-29T22:16:49.897Z,24.30
2022-07-29T22:19:16.435Z,24.20
2022-07-29T22:21:42.969Z,24.20
2022-07-29T22:24:10.359Z,24.10
2022-07-29T22:26:37.366Z,24.10
2022-07-29T22:29:03.873Z,24.00
2022-07-29T22:31:30.418Z,24.00
2022-07-29T22:33:56.911Z,23.90
2022-07-29T22:36:23.329Z,23.90
2022-07-29T22:38:51.954Z,23.90
2022-07-29T22:41:18.744Z,23.80
2022-07-29T22:43:45.182Z,23.80
2022-07-29T22:46:11.698Z,23.80
2022-07-29T22:48:38.513Z,23.70
2022-07-29T22:51:05.010Z,23.70
2022-07-29T22:53:31.449Z,23.60
2022-07-29T22:55:57.901Z,23.60
2022-07-29T22:58:24.389Z,23.50
2022-07-29T23:00:50.991Z,23.50
2022-07-29T23:03:17.492Z,23.50
2022-07-29T23:05:43.994Z,23.40
2022-07-29T23:08:10.425Z,23.40
2022-07-29T23:10:36.938Z,23.40
2022-07-29T23:13:03.422Z,23.30
2022-07-29T23:15:29.935Z,23.30
2022-07-29T23:17:56.602Z,23.20
2022-07-29T23:20:23.135Z,23.20
2022-07-29T23:22:49.613Z,23.20
2022-07-29T23:25:16.055Z,23.20
2022-07-29T23:27:42.493Z,23.10
2022-07-29T23:30:09.266Z,23.10
2022-07-29T23:32:35.781Z,23.00
2022-07-29T23:35:02.271Z,23.00
2022-07-29T23:37:28.707Z,23.00
2022-07-29T23:39:55.201Z,22.90
2022-07-29T23:42:21.663Z,22.90
2022-07-29T23:44:48.141Z,22.90
2022-07-29T23:47:14.642Z,22.80
2022-07-29T23:49:41.106Z,22.80
2022-07-29T23:52:07.577Z,22.70
2022-07-29T23:54:34.146Z,22.70
2022-07-29T23:57:01.113Z,22.70
2022-07-29T23:59:27.788Z,22.60
